sensor_id;sensor_type;location;lat;lon;timestamp;P1;durP1;ratioP1;P2;durP2;ratioP2
24521;SDS011;12680;57.804;12.190;2023-02-11T00:02:02;29.58;;;4.40;;
24521;SDS011;12680;57.804;12.190;2023-02-11T00:04:31;22.67;;;4.82;;
24521;SDS011;12680;57.804;12.190;2023-02-11T00:07:05;27.55;;;4.68;;
24521;SDS011;12680;57.804;12.190;2023-02-11T00:09:36;22.38;;;3.97;;
24521;SDS011;12680;57.804;12.190;2023-02-11T00:12:03;39.70;;;6.47;;
24521;SDS011;12680;57.804;12.190;2023-02-11T00:14:30;32.05;;;5.35;;
24521;SDS011;12680;57.804;12.190;2023-02-11T00:17:05;35.00;;;4.15;;
24521;SDS011;12680;57.804;12.190;2023-02-11T00:19:32;39.00;;;4.78;;
24521;SDS011;12680;57.804;12.190;2023-02-11T00:21:59;54.38;;;6.07;;
24521;SDS011;12680;57.804;12.190;2023-02-11T00:24:30;40.23;;;4.17;;
24521;SDS011;12680;57.804;12.190;2023-02-11T00:27:00;24.60;;;4.47;;
24521;SDS011;12680;57.804;12.190;2023-02-11T00:29:27;29.02;;;4.72;;
24521;SDS011;12680;57.804;12.190;2023-02-11T00:31:55;28.15;;;4.45;;
24521;SDS011;12680;57.804;12.190;2023-02-11T00:34:26;27.85;;;5.43;;
24521;SDS011;12680;57.804;12.190;2023-02-11T00:36:53;26.25;;;4.60;;
24521;SDS011;12680;57.804;12.190;2023-02-11T00:39:24;31.30;;;4.85;;
24521;SDS011;12680;57.804;12.190;2023-02-11T00:41:58;28.52;;;4.50;;
24521;SDS011;12680;57.804;12.190;2023-02-11T00:44:26;26.48;;;4.28;;
24521;SDS011;12680;57.804;12.190;2023-02-11T00:46:54;43.03;;;4.50;;
24521;SDS011;12680;57.804;12.190;2023-02-11T00:49:25;28.65;;;4.30;;
24521;SDS011;12680;57.804;12.190;2023-02-11T00:51:55;28.85;;;4.82;;
24521;SDS011;12680;57.804;12.190;2023-02-11T00:54:29;24.92;;;4.82;;
24521;SDS011;12680;57.804;12.190;2023-02-11T00:56:56;21.98;;;4.80;;
24521;SDS011;12680;57.804;12.190;2023-02-11T00:59:23;31.38;;;4.47;;
24521;SDS011;12680;57.804;12.190;2023-02-11T01:01:53;22.73;;;4.47;;
24521;SDS011;12680;57.804;12.190;2023-02-11T01:04:25;24.83;;;4.05;;
24521;SDS011;12680;57.804;12.190;2023-02-11T01:06:52;29.52;;;4.22;;
24521;SDS011;12680;57.804;12.190;2023-02-11T01:09:22;34.25;;;5.53;;
24521;SDS011;12680;57.804;12.190;2023-02-11T01:11:53;21.88;;;3.78;;
24521;SDS011;12680;57.804;12.190;2023-02-11T01:14:20;30.20;;;4.80;;
24521;SDS011;12680;57.804;12.190;2023-02-11T01:16:47;22.52;;;3.58;;
24521;SDS011;12680;57.804;12.190;2023-02-11T01:19:14;21.58;;;3.78;;
24521;SDS011;12680;57.804;12.190;2023-02-11T01:21:45;24.00;;;4.65;;
24521;SDS011;12680;57.804;12.190;2023-02-11T01:24:15;13.23;;;2.30;;
24521;SDS011;12680;57.804;12.190;2023-02-11T01:26:45;27.05;;;3.65;;
24521;SDS011;12680;57.804;12.190;2023-02-11T01:29:16;31.60;;;5.32;;
24521;SDS011;12680;57.804;12.190;2023-02-11T01:31:46;35.92;;;6.15;;
24521;SDS011;12680;57.804;12.190;2023-02-11T01:34:14;33.42;;;5.22;;
24521;SDS011;12680;57.804;12.190;2023-02-11T01:36:45;33.83;;;5.50;;
24521;SDS011;12680;57.804;12.190;2023-02-11T01:39:16;15.82;;;3.70;;
24521;SDS011;12680;57.804;12.190;2023-02-11T01:41:42;27.60;;;4.30;;
24521;SDS011;12680;57.804;12.190;2023-02-11T01:44:23;33.80;;;4.72;;
24521;SDS011;12680;57.804;12.190;2023-02-11T01:46:56;18.17;;;3.85;;
24521;SDS011;12680;57.804;12.190;2023-02-11T01:52:29;26.77;;;5.32;;
24521;SDS011;12680;57.804;12.190;2023-02-11T01:54:54;30.48;;;4.65;;
24521;SDS011;12680;57.804;12.190;2023-02-11T01:57:49;32.55;;;5.28;;
24521;SDS011;12680;57.804;12.190;2023-02-11T02:00:23;29.33;;;4.80;;
24521;SDS011;12680;57.804;12.190;2023-02-11T02:03:12;28.27;;;4.55;;
24521;SDS011;12680;57.804;12.190;2023-02-11T02:05:53;30.25;;;5.15;;
24521;SDS011;12680;57.804;12.190;2023-02-11T02:11:10;25.92;;;4.28;;
24521;SDS011;12680;57.804;12.190;2023-02-11T02:13:37;34.00;;;4.90;;
24521;SDS011;12680;57.804;12.190;2023-02-11T02:16:09;29.27;;;5.20;;
24521;SDS011;12680;57.804;12.190;2023-02-11T02:26:32;30.05;;;5.80;;
24521;SDS011;12680;57.804;12.190;2023-02-11T02:29:36;24.23;;;3.95;;
24521;SDS011;12680;57.804;12.190;2023-02-11T02:32:41;33.30;;;4.82;;
24521;SDS011;12680;57.804;12.190;2023-02-11T02:37:56;40.40;;;6.60;;
24521;SDS011;12680;57.804;12.190;2023-02-11T02:40:35;32.97;;;4.40;;
24521;SDS011;12680;57.804;12.190;2023-02-11T02:43:11;24.65;;;4.50;;
24521;SDS011;12680;57.804;12.190;2023-02-11T02:48:24;32.33;;;5.35;;
24521;SDS011;12680;57.804;12.190;2023-02-11T02:50:52;32.75;;;5.13;;
24521;SDS011;12680;57.804;12.190;2023-02-11T02:53:50;41.03;;;4.82;;
24521;SDS011;12680;57.804;12.190;2023-02-11T03:05:22;38.20;;;6.45;;
24521;SDS011;12680;57.804;12.190;2023-02-11T03:10:35;30.98;;;4.15;;
24521;SDS011;12680;57.804;12.190;2023-02-11T03:13:08;42.30;;;6.20;;
24521;SDS011;12680;57.804;12.190;2023-02-11T03:15:40;38.35;;;5.85;;
24521;SDS011;12680;57.804;12.190;2023-02-11T03:18:16;33.15;;;5.35;;
24521;SDS011;12680;57.804;12.190;2023-02-11T03:20:47;34.00;;;4.40;;
24521;SDS011;12680;57.804;12.190;2023-02-11T03:25:52;30.15;;;4.28;;
24521;SDS011;12680;57.804;12.190;2023-02-11T03:29:00;39.90;;;7.97;;
24521;SDS011;12680;57.804;12.190;2023-02-11T03:31:27;33.20;;;5.73;;
24521;SDS011;12680;57.804;12.190;2023-02-11T03:34:05;19.63;;;3.88;;
24521;SDS011;12680;57.804;12.190;2023-02-11T03:36:44;28.10;;;4.43;;
24521;SDS011;12680;57.804;12.190;2023-02-11T03:39:21;30.20;;;5.00;;
24521;SDS011;12680;57.804;12.190;2023-02-11T03:41:54;26.95;;;4.72;;
24521;SDS011;12680;57.804;12.190;2023-02-11T03:44:24;27.58;;;4.88;;
24521;SDS011;12680;57.804;12.190;2023-02-11T03:46:54;32.15;;;4.60;;
24521;SDS011;12680;57.804;12.190;2023-02-11T03:49:21;32.22;;;5.43;;
24521;SDS011;12680;57.804;12.190;2023-02-11T03:51:52;33.43;;;4.80;;
24521;SDS011;12680;57.804;12.190;2023-02-11T03:54:25;30.35;;;5.63;;
24521;SDS011;12680;57.804;12.190;2023-02-11T03:56:56;39.78;;;5.10;;
24521;SDS011;12680;57.804;12.190;2023-02-11T03:59:25;42.55;;;4.55;;
24521;SDS011;12680;57.804;12.190;2023-02-11T04:01:53;37.85;;;5.97;;
24521;SDS011;12680;57.804;12.190;2023-02-11T04:04:20;23.30;;;4.43;;
24521;SDS011;12680;57.804;12.190;2023-02-11T04:06:47;30.10;;;5.97;;
24521;SDS011;12680;57.804;12.190;2023-02-11T04:09:15;31.63;;;4.90;;
24521;SDS011;12680;57.804;12.190;2023-02-11T04:11:46;28.83;;;5.25;;
24521;SDS011;12680;57.804;12.190;2023-02-11T04:14:13;21.02;;;3.90;;
24521;SDS011;12680;57.804;12.190;2023-02-11T04:16:40;29.42;;;4.57;;
24521;SDS011;12680;57.804;12.190;2023-02-11T04:19:07;29.27;;;4.15;;
24521;SDS011;12680;57.804;12.190;2023-02-11T04:21:34;31.60;;;5.10;;
24521;SDS011;12680;57.804;12.190;2023-02-11T04:24:02;35.30;;;5.85;;
24521;SDS011;12680;57.804;12.190;2023-02-11T04:26:29;30.80;;;4.00;;
24521;SDS011;12680;57.804;12.190;2023-02-11T04:28:57;27.15;;;4.25;;
24521;SDS011;12680;57.804;12.190;2023-02-11T04:31:27;22.25;;;3.70;;
24521;SDS011;12680;57.804;12.190;2023-02-11T04:33:55;20.85;;;3.90;;
24521;SDS011;12680;57.804;12.190;2023-02-11T04:36:22;29.55;;;3.97;;
24521;SDS011;12680;57.804;12.190;2023-02-11T04:38:49;23.63;;;3.20;;
24521;SDS011;12680;57.804;12.190;2023-02-11T04:41:17;32.03;;;4.15;;
24521;SDS011;12680;57.804;12.190;2023-02-11T04:43:48;30.52;;;3.15;;
24521;SDS011;12680;57.804;12.190;2023-02-11T04:46:15;24.08;;;3.38;;
24521;SDS011;12680;57.804;12.190;2023-02-11T04:48:42;21.63;;;3.33;;
24521;SDS011;12680;57.804;12.190;2023-02-11T04:51:09;25.23;;;3.78;;
24521;SDS011;12680;57.804;12.190;2023-02-11T04:53:36;24.92;;;3.95;;
24521;SDS011;12680;57.804;12.190;2023-02-11T04:56:03;28.48;;;4.30;;
24521;SDS011;12680;57.804;12.190;2023-02-11T04:58:31;24.23;;;3.97;;
24521;SDS011;12680;57.804;12.190;2023-02-11T05:01:08;25.58;;;3.72;;
24521;SDS011;12680;57.804;12.190;2023-02-11T05:03:36;24.17;;;3.75;;
24521;SDS011;12680;57.804;12.190;2023-02-11T05:06:03;23.80;;;3.47;;
24521;SDS011;12680;57.804;12.190;2023-02-11T05:08:30;19.70;;;3.30;;
24521;SDS011;12680;57.804;12.190;2023-02-11T05:11:01;29.67;;;4.20;;
24521;SDS011;12680;57.804;12.190;2023-02-11T05:13:33;20.63;;;3.38;;
24521;SDS011;12680;57.804;12.190;2023-02-11T05:16:00;16.92;;;3.75;;
24521;SDS011;12680;57.804;12.190;2023-02-11T05:18:28;20.92;;;4.22;;
24521;SDS011;12680;57.804;12.190;2023-02-11T05:20:54;33.60;;;4.90;;
24521;SDS011;12680;57.804;12.190;2023-02-11T05:23:25;33.70;;;5.05;;
24521;SDS011;12680;57.804;12.190;2023-02-11T05:25:52;22.13;;;3.45;;
24521;SDS011;12680;57.804;12.190;2023-02-11T05:28:20;24.77;;;3.97;;
24521;SDS011;12680;57.804;12.190;2023-02-11T05:30:47;24.52;;;4.43;;
24521;SDS011;12680;57.804;12.190;2023-02-11T05:33:16;30.98;;;3.88;;
24521;SDS011;12680;57.804;12.190;2023-02-11T05:35:47;29.80;;;4.05;;
24521;SDS011;12680;57.804;12.190;2023-02-11T05:38:14;30.80;;;4.10;;
24521;SDS011;12680;57.804;12.190;2023-02-11T05:40:43;32.80;;;4.45;;
24521;SDS011;12680;57.804;12.190;2023-02-11T05:43:10;25.77;;;3.53;;
24521;SDS011;12680;57.804;12.190;2023-02-11T05:45:37;28.58;;;4.20;;
24521;SDS011;12680;57.804;12.190;2023-02-11T05:48:07;34.17;;;4.57;;
24521;SDS011;12680;57.804;12.190;2023-02-11T05:50:34;32.00;;;5.05;;
24521;SDS011;12680;57.804;12.190;2023-02-11T05:53:04;23.92;;;5.78;;
24521;SDS011;12680;57.804;12.190;2023-02-11T05:55:32;27.17;;;4.70;;
24521;SDS011;12680;57.804;12.190;2023-02-11T05:58:02;30.70;;;4.95;;
24521;SDS011;12680;57.804;12.190;2023-02-11T06:00:30;41.10;;;5.57;;
24521;SDS011;12680;57.804;12.190;2023-02-11T06:02:57;21.10;;;3.20;;
24521;SDS011;12680;57.804;12.190;2023-02-11T06:05:24;28.92;;;4.10;;
24521;SDS011;12680;57.804;12.190;2023-02-11T06:07:52;33.35;;;4.38;;
24521;SDS011;12680;57.804;12.190;2023-02-11T06:10:18;26.48;;;3.80;;
24521;SDS011;12680;57.804;12.190;2023-02-11T06:12:46;30.90;;;4.85;;
24521;SDS011;12680;57.804;12.190;2023-02-11T06:15:13;30.05;;;3.90;;
24521;SDS011;12680;57.804;12.190;2023-02-11T06:17:43;20.92;;;3.25;;
24521;SDS011;12680;57.804;12.190;2023-02-11T06:20:10;29.77;;;3.58;;
24521;SDS011;12680;57.804;12.190;2023-02-11T06:22:37;28.08;;;3.88;;
24521;SDS011;12680;57.804;12.190;2023-02-11T06:25:07;26.80;;;3.85;;
24521;SDS011;12680;57.804;12.190;2023-02-11T06:27:42;24.00;;;2.80;;
24521;SDS011;12680;57.804;12.190;2023-02-11T06:30:08;25.27;;;3.80;;
24521;SDS011;12680;57.804;12.190;2023-02-11T06:32:36;27.33;;;4.07;;
24521;SDS011;12680;57.804;12.190;2023-02-11T06:35:12;23.38;;;3.15;;
24521;SDS011;12680;57.804;12.190;2023-02-11T06:37:40;23.92;;;3.13;;
24521;SDS011;12680;57.804;12.190;2023-02-11T06:40:08;17.90;;;3.28;;
24521;SDS011;12680;57.804;12.190;2023-02-11T06:42:35;37.15;;;3.95;;
24521;SDS011;12680;57.804;12.190;2023-02-11T06:45:04;11.25;;;2.50;;
24521;SDS011;12680;57.804;12.190;2023-02-11T06:47:34;30.83;;;4.03;;
24521;SDS011;12680;57.804;12.190;2023-02-11T06:50:01;22.65;;;4.22;;
24521;SDS011;12680;57.804;12.190;2023-02-11T06:52:28;23.13;;;4.28;;
24521;SDS011;12680;57.804;12.190;2023-02-11T06:54:55;27.15;;;3.72;;
24521;SDS011;12680;57.804;12.190;2023-02-11T06:57:22;25.20;;;3.45;;
24521;SDS011;12680;57.804;12.190;2023-02-11T06:59:49;26.70;;;3.47;;
24521;SDS011;12680;57.804;12.190;2023-02-11T07:02:17;23.27;;;3.00;;
24521;SDS011;12680;57.804;12.190;2023-02-11T07:04:46;31.13;;;3.22;;
24521;SDS011;12680;57.804;12.190;2023-02-11T07:07:13;24.55;;;3.40;;
24521;SDS011;12680;57.804;12.190;2023-02-11T07:09:40;21.92;;;3.00;;
24521;SDS011;12680;57.804;12.190;2023-02-11T07:12:08;24.02;;;3.85;;
24521;SDS011;12680;57.804;12.190;2023-02-11T07:14:36;20.90;;;3.47;;
24521;SDS011;12680;57.804;12.190;2023-02-11T07:17:03;24.38;;;3.47;;
24521;SDS011;12680;57.804;12.190;2023-02-11T07:19:30;26.92;;;3.58;;
24521;SDS011;12680;57.804;12.190;2023-02-11T07:21:58;26.80;;;3.42;;
24521;SDS011;12680;57.804;12.190;2023-02-11T07:24:25;18.77;;;2.45;;
24521;SDS011;12680;57.804;12.190;2023-02-11T07:26:52;17.25;;;3.00;;
24521;SDS011;12680;57.804;12.190;2023-02-11T07:29:19;17.08;;;3.53;;
24521;SDS011;12680;57.804;12.190;2023-02-11T07:31:46;17.83;;;3.40;;
24521;SDS011;12680;57.804;12.190;2023-02-11T07:34:13;17.35;;;3.10;;
24521;SDS011;12680;57.804;12.190;2023-02-11T07:36:43;21.65;;;2.63;;
24521;SDS011;12680;57.804;12.190;2023-02-11T07:39:11;16.38;;;2.70;;
24521;SDS011;12680;57.804;12.190;2023-02-11T07:41:38;22.98;;;3.97;;
24521;SDS011;12680;57.804;12.190;2023-02-11T07:44:05;17.20;;;3.53;;
24521;SDS011;12680;57.804;12.190;2023-02-11T07:46:32;15.32;;;3.05;;
24521;SDS011;12680;57.804;12.190;2023-02-11T07:49:01;21.45;;;2.60;;
24521;SDS011;12680;57.804;12.190;2023-02-11T07:51:31;16.10;;;1.92;;
24521;SDS011;12680;57.804;12.190;2023-02-11T07:53:58;18.50;;;3.38;;
24521;SDS011;12680;57.804;12.190;2023-02-11T07:56:26;14.38;;;1.95;;
24521;SDS011;12680;57.804;12.190;2023-02-11T07:58:54;19.70;;;2.33;;
24521;SDS011;12680;57.804;12.190;2023-02-11T08:01:24;12.93;;;2.22;;
24521;SDS011;12680;57.804;12.190;2023-02-11T08:03:54;18.83;;;2.15;;
24521;SDS011;12680;57.804;12.190;2023-02-11T08:06:24;12.43;;;1.95;;
24521;SDS011;12680;57.804;12.190;2023-02-11T08:08:52;15.60;;;2.78;;
24521;SDS011;12680;57.804;12.190;2023-02-11T08:11:20;16.50;;;2.17;;
24521;SDS011;12680;57.804;12.190;2023-02-11T08:13:51;10.68;;;2.10;;
24521;SDS011;12680;57.804;12.190;2023-02-11T08:16:27;10.57;;;2.20;;
24521;SDS011;12680;57.804;12.190;2023-02-11T08:18:56;14.25;;;1.70;;
24521;SDS011;12680;57.804;12.190;2023-02-11T08:21:25;15.80;;;2.05;;
24521;SDS011;12680;57.804;12.190;2023-02-11T08:23:53;12.07;;;2.25;;
24521;SDS011;12680;57.804;12.190;2023-02-11T08:26:22;12.13;;;2.10;;
24521;SDS011;12680;57.804;12.190;2023-02-11T08:28:51;7.65;;;2.10;;
24521;SDS011;12680;57.804;12.190;2023-02-11T08:31:20;14.73;;;1.73;;
24521;SDS011;12680;57.804;12.190;2023-02-11T08:33:49;9.70;;;2.10;;
24521;SDS011;12680;57.804;12.190;2023-02-11T08:36:22;14.90;;;2.30;;
24521;SDS011;12680;57.804;12.190;2023-02-11T08:38:55;12.55;;;2.03;;
24521;SDS011;12680;57.804;12.190;2023-02-11T08:41:43;13.38;;;2.35;;
24521;SDS011;12680;57.804;12.190;2023-02-11T08:44:11;18.38;;;2.42;;
24521;SDS011;12680;57.804;12.190;2023-02-11T08:46:38;16.88;;;2.78;;
24521;SDS011;12680;57.804;12.190;2023-02-11T08:49:05;17.45;;;2.60;;
24521;SDS011;12680;57.804;12.190;2023-02-11T08:51:32;14.20;;;2.95;;
24521;SDS011;12680;57.804;12.190;2023-02-11T08:54:02;11.68;;;1.95;;
24521;SDS011;12680;57.804;12.190;2023-02-11T08:56:29;16.13;;;1.92;;
24521;SDS011;12680;57.804;12.190;2023-02-11T08:58:58;7.70;;;1.75;;
24521;SDS011;12680;57.804;12.190;2023-02-11T09:01:27;12.07;;;2.42;;
24521;SDS011;12680;57.804;12.190;2023-02-11T09:03:55;12.50;;;2.17;;
24521;SDS011;12680;57.804;12.190;2023-02-11T09:06:23;12.07;;;2.22;;
24521;SDS011;12680;57.804;12.190;2023-02-11T09:08:52;19.90;;;2.90;;
24521;SDS011;12680;57.804;12.190;2023-02-11T09:11:30;18.17;;;2.40;;
24521;SDS011;12680;57.804;12.190;2023-02-11T09:14:05;12.95;;;2.42;;
24521;SDS011;12680;57.804;12.190;2023-02-11T09:16:33;15.07;;;2.45;;
24521;SDS011;12680;57.804;12.190;2023-02-11T09:19:04;10.00;;;1.90;;
24521;SDS011;12680;57.804;12.190;2023-02-11T09:21:31;11.45;;;2.10;;
24521;SDS011;12680;57.804;12.190;2023-02-11T09:23:58;8.75;;;1.73;;
24521;SDS011;12680;57.804;12.190;2023-02-11T09:26:27;9.75;;;2.45;;
24521;SDS011;12680;57.804;12.190;2023-02-11T09:28:55;14.40;;;2.42;;
24521;SDS011;12680;57.804;12.190;2023-02-11T09:31:24;10.02;;;2.20;;
24521;SDS011;12680;57.804;12.190;2023-02-11T09:33:54;9.23;;;1.67;;
24521;SDS011;12680;57.804;12.190;2023-02-11T09:36:28;14.30;;;2.80;;
24521;SDS011;12680;57.804;12.190;2023-02-11T09:39:05;15.05;;;2.92;;
24521;SDS011;12680;57.804;12.190;2023-02-11T09:41:38;9.10;;;1.77;;
24521;SDS011;12680;57.804;12.190;2023-02-11T09:44:17;5.75;;;1.58;;
24521;SDS011;12680;57.804;12.190;2023-02-11T09:46:57;10.50;;;2.00;;
24521;SDS011;12680;57.804;12.190;2023-02-11T09:49:39;14.05;;;2.10;;
24521;SDS011;12680;57.804;12.190;2023-02-11T09:55:48;12.68;;;2.08;;
24521;SDS011;12680;57.804;12.190;2023-02-11T09:57:54;8.98;;;1.67;;
24521;SDS011;12680;57.804;12.190;2023-02-11T10:00:42;12.27;;;2.05;;
24521;SDS011;12680;57.804;12.190;2023-02-11T10:11:20;10.57;;;1.83;;
24521;SDS011;12680;57.804;12.190;2023-02-11T10:14:06;13.52;;;2.58;;
24521;SDS011;12680;57.804;12.190;2023-02-11T10:16:53;19.00;;;6.43;;
24521;SDS011;12680;57.804;12.190;2023-02-11T10:25:28;11.55;;;4.95;;
24521;SDS011;12680;57.804;12.190;2023-02-11T10:28:12;14.13;;;2.67;;
24521;SDS011;12680;57.804;12.190;2023-02-11T10:33:30;11.27;;;1.95;;
24521;SDS011;12680;57.804;12.190;2023-02-11T10:36:10;14.77;;;1.92;;
24521;SDS011;12680;57.804;12.190;2023-02-11T10:38:38;12.65;;;2.22;;
24521;SDS011;12680;57.804;12.190;2023-02-11T10:41:09;9.50;;;2.20;;
24521;SDS011;12680;57.804;12.190;2023-02-11T10:43:43;8.90;;;1.88;;
24521;SDS011;12680;57.804;12.190;2023-02-11T10:46:19;12.80;;;2.67;;
24521;SDS011;12680;57.804;12.190;2023-02-11T10:48:55;11.27;;;1.88;;
24521;SDS011;12680;57.804;12.190;2023-02-11T10:51:33;7.53;;;1.65;;
24521;SDS011;12680;57.804;12.190;2023-02-11T10:56:34;12.23;;;2.03;;
24521;SDS011;12680;57.804;12.190;2023-02-11T11:15:30;15.30;;;2.55;;
24521;SDS011;12680;57.804;12.190;2023-02-11T11:20:58;22.40;;;3.20;;
24521;SDS011;12680;57.804;12.190;2023-02-11T11:23:28;15.02;;;2.83;;
24521;SDS011;12680;57.804;12.190;2023-02-11T11:28:53;12.93;;;2.70;;
24521;SDS011;12680;57.804;12.190;2023-02-11T11:31:32;12.05;;;2.60;;
24521;SDS011;12680;57.804;12.190;2023-02-11T11:34:17;14.48;;;3.20;;
24521;SDS011;12680;57.804;12.190;2023-02-11T11:36:55;14.30;;;2.25;;
24521;SDS011;12680;57.804;12.190;2023-02-11T11:39:28;12.90;;;2.53;;
24521;SDS011;12680;57.804;12.190;2023-02-11T11:41:59;13.80;;;2.30;;
24521;SDS011;12680;57.804;12.190;2023-02-11T11:44:30;13.48;;;2.85;;
24521;SDS011;12680;57.804;12.190;2023-02-11T11:49:38;13.23;;;2.17;;
24521;SDS011;12680;57.804;12.190;2023-02-11T12:00:13;15.32;;;2.72;;
24521;SDS011;12680;57.804;12.190;2023-02-11T12:05:25;11.63;;;2.20;;
24521;SDS011;12680;57.804;12.190;2023-02-11T12:08:10;12.68;;;2.42;;
24521;SDS011;12680;57.804;12.190;2023-02-11T12:11:01;10.90;;;1.80;;
24521;SDS011;12680;57.804;12.190;2023-02-11T12:13:59;10.20;;;2.30;;
24521;SDS011;12680;57.804;12.190;2023-02-11T12:16:40;14.70;;;2.53;;
24521;SDS011;12680;57.804;12.190;2023-02-11T12:27:33;12.18;;;2.20;;
24521;SDS011;12680;57.804;12.190;2023-02-11T12:38:57;12.00;;;1.85;;
24521;SDS011;12680;57.804;12.190;2023-02-11T12:45:07;11.35;;;1.80;;
24521;SDS011;12680;57.804;12.190;2023-02-11T12:56:07;11.48;;;1.88;;
24521;SDS011;12680;57.804;12.190;2023-02-11T12:58:50;13.48;;;1.73;;
24521;SDS011;12680;57.804;12.190;2023-02-11T13:01:22;10.00;;;2.08;;
24521;SDS011;12680;57.804;12.190;2023-02-11T13:06:58;5.00;;;1.48;;
24521;SDS011;12680;57.804;12.190;2023-02-11T13:09:38;7.93;;;1.85;;
24521;SDS011;12680;57.804;12.190;2023-02-11T13:12:36;8.68;;;1.83;;
24521;SDS011;12680;57.804;12.190;2023-02-11T13:15:25;5.53;;;2.05;;
24521;SDS011;12680;57.804;12.190;2023-02-11T13:17:57;7.60;;;1.77;;
24521;SDS011;12680;57.804;12.190;2023-02-11T13:20:48;7.97;;;2.08;;
24521;SDS011;12680;57.804;12.190;2023-02-11T13:23:40;9.82;;;1.70;;
24521;SDS011;12680;57.804;12.190;2023-02-11T13:29:21;11.48;;;1.92;;
24521;SDS011;12680;57.804;12.190;2023-02-11T13:32:10;16.02;;;2.03;;
24521;SDS011;12680;57.804;12.190;2023-02-11T13:42:46;9.20;;;2.03;;
24521;SDS011;12680;57.804;12.190;2023-02-11T13:48:06;12.40;;;1.83;;
24521;SDS011;12680;57.804;12.190;2023-02-11T13:50:52;7.00;;;1.45;;
24521;SDS011;12680;57.804;12.190;2023-02-11T13:53:22;10.85;;;1.90;;
24521;SDS011;12680;57.804;12.190;2023-02-11T13:55:51;11.05;;;2.20;;
24521;SDS011;12680;57.804;12.190;2023-02-11T14:01:01;9.15;;;2.28;;
24521;SDS011;12680;57.804;12.190;2023-02-11T14:03:35;9.35;;;2.08;;
24521;SDS011;12680;57.804;12.190;2023-02-11T14:06:23;8.95;;;1.92;;
24521;SDS011;12680;57.804;12.190;2023-02-11T14:19:35;15.48;;;2.45;;
24521;SDS011;12680;57.804;12.190;2023-02-11T14:22:17;10.32;;;1.95;;
24521;SDS011;12680;57.804;12.190;2023-02-11T14:25:21;11.05;;;2.42;;
24521;SDS011;12680;57.804;12.190;2023-02-11T14:27:52;14.13;;;2.55;;
24521;SDS011;12680;57.804;12.190;2023-02-11T14:30:46;13.90;;;2.47;;
24521;SDS011;12680;57.804;12.190;2023-02-11T14:33:44;17.33;;;2.70;;
24521;SDS011;12680;57.804;12.190;2023-02-11T14:42:27;14.80;;;2.20;;
24521;SDS011;12680;57.804;12.190;2023-02-11T14:45:02;13.48;;;3.08;;
24521;SDS011;12680;57.804;12.190;2023-02-11T14:47:35;17.17;;;3.22;;
24521;SDS011;12680;57.804;12.190;2023-02-11T14:50:17;10.93;;;2.65;;
24521;SDS011;12680;57.804;12.190;2023-02-11T14:52:49;11.27;;;2.58;;
24521;SDS011;12680;57.804;12.190;2023-02-11T14:55:27;8.20;;;2.42;;
24521;SDS011;12680;57.804;12.190;2023-02-11T14:58:10;10.63;;;1.90;;
24521;SDS011;12680;57.804;12.190;2023-02-11T15:00:48;11.75;;;2.08;;
24521;SDS011;12680;57.804;12.190;2023-02-11T15:03:32;6.50;;;1.83;;
24521;SDS011;12680;57.804;12.190;2023-02-11T15:06:02;14.93;;;2.60;;
24521;SDS011;12680;57.804;12.190;2023-02-11T15:08:46;13.00;;;2.78;;
24521;SDS011;12680;57.804;12.190;2023-02-11T15:11:15;8.68;;;2.38;;
24521;SDS011;12680;57.804;12.190;2023-02-11T15:13:44;12.80;;;2.95;;
24521;SDS011;12680;57.804;12.190;2023-02-11T15:16:13;10.65;;;2.60;;
24521;SDS011;12680;57.804;12.190;2023-02-11T15:18:47;16.90;;;3.43;;
24521;SDS011;12680;57.804;12.190;2023-02-11T15:21:21;9.85;;;3.17;;
24521;SDS011;12680;57.804;12.190;2023-02-11T15:26:26;13.35;;;3.38;;
24521;SDS011;12680;57.804;12.190;2023-02-11T15:28:54;10.48;;;3.13;;
24521;SDS011;12680;57.804;12.190;2023-02-11T15:31:22;10.77;;;2.60;;
24521;SDS011;12680;57.804;12.190;2023-02-11T15:33:51;10.95;;;2.88;;
24521;SDS011;12680;57.804;12.190;2023-02-11T15:36:20;6.85;;;2.05;;
24521;SDS011;12680;57.804;12.190;2023-02-11T15:41:43;4.65;;;2.20;;
24521;SDS011;12680;57.804;12.190;2023-02-11T15:44:26;4.65;;;2.53;;
24521;SDS011;12680;57.804;12.190;2023-02-11T15:46:54;6.50;;;2.60;;
24521;SDS011;12680;57.804;12.190;2023-02-11T15:49:21;7.32;;;2.20;;
24521;SDS011;12680;57.804;12.190;2023-02-11T15:51:50;3.42;;;1.73;;
24521;SDS011;12680;57.804;12.190;2023-02-11T15:54:20;9.20;;;1.80;;
24521;SDS011;12680;57.804;12.190;2023-02-11T15:56:50;4.72;;;1.50;;
24521;SDS011;12680;57.804;12.190;2023-02-11T15:59:37;7.40;;;1.80;;
24521;SDS011;12680;57.804;12.190;2023-02-11T16:02:07;5.05;;;1.75;;
24521;SDS011;12680;57.804;12.190;2023-02-11T16:05:04;3.58;;;1.75;;
24521;SDS011;12680;57.804;12.190;2023-02-11T16:07:41;3.05;;;1.80;;
24521;SDS011;12680;57.804;12.190;2023-02-11T16:10:25;5.10;;;1.13;;
24521;SDS011;12680;57.804;12.190;2023-02-11T16:18:19;3.05;;;1.30;;
24521;SDS011;12680;57.804;12.190;2023-02-11T16:21:04;3.13;;;1.52;;
24521;SDS011;12680;57.804;12.190;2023-02-11T16:23:38;3.00;;;1.67;;
24521;SDS011;12680;57.804;12.190;2023-02-11T16:26:24;5.05;;;1.60;;
24521;SDS011;12680;57.804;12.190;2023-02-11T16:29:01;3.47;;;1.27;;
24521;SDS011;12680;57.804;12.190;2023-02-11T16:31:31;3.40;;;1.38;;
24521;SDS011;12680;57.804;12.190;2023-02-11T16:34:00;3.63;;;1.50;;
24521;SDS011;12680;57.804;12.190;2023-02-11T16:36:27;2.25;;;1.17;;
24521;SDS011;12680;57.804;12.190;2023-02-11T16:38:53;3.00;;;1.80;;
24521;SDS011;12680;57.804;12.190;2023-02-11T16:41:20;2.40;;;1.40;;
24521;SDS011;12680;57.804;12.190;2023-02-11T16:43:47;2.03;;;1.30;;
24521;SDS011;12680;57.804;12.190;2023-02-11T16:46:14;2.10;;;1.30;;
24521;SDS011;12680;57.804;12.190;2023-02-11T16:48:41;1.42;;;0.93;;
24521;SDS011;12680;57.804;12.190;2023-02-11T16:51:09;3.35;;;1.27;;
24521;SDS011;12680;57.804;12.190;2023-02-11T16:53:37;2.42;;;1.10;;
24521;SDS011;12680;57.804;12.190;2023-02-11T16:56:04;2.50;;;0.85;;
24521;SDS011;12680;57.804;12.190;2023-02-11T16:58:31;2.92;;;1.23;;
24521;SDS011;12680;57.804;12.190;2023-02-11T17:01:00;2.17;;;1.25;;
24521;SDS011;12680;57.804;12.190;2023-02-11T17:03:27;2.25;;;1.10;;
24521;SDS011;12680;57.804;12.190;2023-02-11T17:05:55;2.55;;;1.13;;
24521;SDS011;12680;57.804;12.190;2023-02-11T17:08:22;2.10;;;1.27;;
24521;SDS011;12680;57.804;12.190;2023-02-11T17:10:49;2.70;;;1.10;;
24521;SDS011;12680;57.804;12.190;2023-02-11T17:13:16;5.22;;;1.45;;
24521;SDS011;12680;57.804;12.190;2023-02-11T17:15:43;1.45;;;0.90;;
24521;SDS011;12680;57.804;12.190;2023-02-11T17:18:11;2.28;;;0.90;;
24521;SDS011;12680;57.804;12.190;2023-02-11T17:20:39;4.45;;;1.60;;
24521;SDS011;12680;57.804;12.190;2023-02-11T17:23:06;4.72;;;1.50;;
24521;SDS011;12680;57.804;12.190;2023-02-11T17:25:34;3.15;;;1.50;;
24521;SDS011;12680;57.804;12.190;2023-02-11T17:28:03;2.55;;;1.50;;
24521;SDS011;12680;57.804;12.190;2023-02-11T17:30:30;1.83;;;1.30;;
24521;SDS011;12680;57.804;12.190;2023-02-11T17:32:57;1.83;;;1.50;;
24521;SDS011;12680;57.804;12.190;2023-02-11T17:35:23;2.72;;;1.50;;
24521;SDS011;12680;57.804;12.190;2023-02-11T17:37:50;3.15;;;1.92;;
24521;SDS011;12680;57.804;12.190;2023-02-11T17:40:17;3.10;;;1.42;;